createdAt,value
2018-09-03T00:00:18.662Z,15.10
2018-09-03T00:02:47.176Z,15.10
2018-09-03T00:05:15.725Z,15.10
2018-09-03T00:07:44.163Z,15.10
2018-09-03T00:10:12.707Z,15.10
2018-09-03T00:12:41.179Z,15.00
2018-09-03T00:15:09.552Z,14.90
2018-09-03T00:17:41.992Z,15.00
2018-09-03T00:32:44.142Z,15.00
2018-09-03T00:35:17.901Z,15.00
2018-09-03T00:39:59.210Z,15.00
2018-09-03T00:42:37.492Z,15.00
2018-09-03T00:51:52.822Z,14.80
2018-09-03T00:54:21.853Z,14.70
2018-09-03T00:56:50.211Z,14.70
2018-09-03T00:59:19.649Z,14.50
2018-09-03T01:01:48.216Z,14.50
2018-09-03T01:04:16.850Z,14.40
2018-09-03T01:06:46.048Z,14.40
2018-09-03T01:09:14.765Z,14.30
2018-09-03T01:11:43.439Z,14.50
2018-09-03T01:14:12.224Z,14.50
2018-09-03T01:16:40.942Z,14.60
2018-09-03T01:19:09.919Z,14.80
2018-09-03T01:21:39.071Z,14.80
2018-09-03T01:24:07.924Z,14.80
2018-09-03T01:26:36.500Z,14.70
2018-09-03T01:29:05.686Z,14.70
2018-09-03T01:31:34.861Z,14.80
2018-09-03T01:34:03.887Z,14.80
2018-09-03T01:36:32.880Z,14.80
2018-09-03T01:39:02.130Z,14.90
2018-09-03T01:41:30.746Z,14.90
2018-09-03T01:43:59.478Z,14.80
2018-09-03T01:46:28.002Z,14.70
2018-09-03T01:48:56.605Z,14.50
2018-09-03T01:51:25.632Z,14.40
2018-09-03T01:53:54.297Z,14.60
2018-09-03T01:56:22.926Z,14.70
2018-09-03T01:58:51.899Z,14.80
2018-09-03T02:01:20.357Z,14.90
2018-09-03T02:03:49.355Z,14.90
2018-09-03T02:06:18.632Z,14.80
2018-09-03T02:08:47.374Z,14.70
2018-09-03T02:11:16.266Z,14.80
2018-09-03T02:13:45.659Z,14.90
2018-09-03T02:16:14.639Z,15.00
2018-09-03T02:18:43.699Z,14.90
2018-09-03T02:21:12.698Z,14.90
2018-09-03T02:23:45.494Z,14.90
2018-09-03T02:26:13.886Z,14.80
2018-09-03T02:28:42.539Z,14.80
2018-09-03T02:31:10.781Z,14.80
2018-09-03T02:33:39.186Z,14.70
2018-09-03T02:36:08.053Z,14.70
2018-09-03T02:38:36.562Z,14.60
2018-09-03T02:41:04.992Z,14.60
2018-09-03T02:43:33.594Z,14.50
2018-09-03T02:46:02.430Z,14.60
2018-09-03T02:48:31.183Z,14.60
2018-09-03T02:50:59.817Z,14.60
2018-09-03T02:53:28.193Z,14.60
2018-09-03T02:55:56.817Z,14.60
2018-09-03T02:58:25.706Z,14.60
2018-09-03T03:00:54.333Z,14.60
2018-09-03T03:03:22.954Z,14.70
2018-09-03T03:05:51.768Z,14.70
2018-09-03T03:08:20.634Z,14.60
2018-09-03T03:10:49.265Z,14.50
2018-09-03T03:13:18.784Z,14.70
2018-09-03T03:15:47.446Z,14.70
2018-09-03T03:18:16.114Z,14.60
2018-09-03T03:20:44.923Z,14.50
2018-09-03T03:23:13.358Z,14.40
2018-09-03T03:25:41.705Z,14.40
2018-09-03T03:28:10.537Z,14.40
2018-09-03T03:30:38.947Z,14.40
2018-09-03T03:33:10.219Z,14.50
2018-09-03T03:35:39.582Z,14.60
2018-09-03T03:38:08.117Z,14.60
2018-09-03T03:40:36.552Z,14.60
2018-09-03T03:43:05.441Z,14.70
2018-09-03T03:45:33.739Z,14.60
2018-09-03T03:48:02.220Z,14.40
2018-09-03T03:50:31.181Z,14.30
2018-09-03T03:52:59.925Z,14.20
2018-09-03T03:55:28.414Z,14.20
2018-09-03T03:57:57.062Z,14.10
2018-09-03T04:00:27.214Z,14.30
2018-09-03T04:02:55.573Z,14.50
2018-09-03T04:05:24.271Z,14.50
2018-09-03T04:07:52.467Z,14.50
2018-09-03T04:10:20.866Z,14.60
2018-09-03T04:12:53.820Z,14.40
2018-09-03T04:15:23.019Z,14.40
2018-09-03T04:17:51.511Z,14.30
2018-09-03T04:20:20.326Z,14.40
2018-09-03T04:22:48.783Z,14.60
2018-09-03T04:25:22.531Z,14.70
2018-09-03T04:27:51.650Z,14.60
2018-09-03T04:30:21.064Z,14.50
2018-09-03T04:32:49.633Z,14.40
2018-09-03T04:35:18.674Z,14.40
2018-09-03T04:37:46.921Z,14.40
2018-09-03T04:40:18.305Z,14.40
2018-09-03T04:42:47.262Z,14.40
2018-09-03T04:45:15.882Z,14.50
2018-09-03T04:47:44.590Z,14.60
2018-09-03T04:50:13.467Z,14.70
2018-09-03T04:52:41.736Z,14.60
2018-09-03T04:55:10.113Z,14.70
2018-09-03T04:57:39.266Z,14.80
2018-09-03T05:00:07.561Z,14.70
2018-09-03T05:02:35.773Z,14.70
2018-09-03T05:05:04.811Z,14.70
2018-09-03T05:07:33.532Z,14.70
2018-09-03T05:10:02.127Z,14.60
2018-09-03T05:12:31.338Z,14.40
2018-09-03T05:14:59.963Z,14.50
2018-09-03T05:17:28.538Z,14.40
2018-09-03T05:19:57.445Z,14.20
2018-09-03T05:22:25.830Z,14.40
2018-09-03T05:24:54.246Z,14.40
2018-09-03T05:27:23.245Z,14.30
2018-09-03T05:29:51.705Z,14.30
2018-09-03T05:32:20.592Z,14.20
2018-09-03T05:34:49.758Z,14.00
2018-09-03T05:37:18.114Z,14.10
2018-09-03T05:39:46.708Z,14.00
2018-09-03T05:42:16.073Z,14.30
2018-09-03T05:44:44.497Z,14.40
2018-09-03T05:47:12.734Z,14.60
2018-09-03T05:49:41.720Z,14.80
2018-09-03T05:52:10.144Z,14.90
2018-09-03T05:54:38.563Z,15.00
2018-09-03T05:57:07.610Z,15.00
2018-09-03T05:59:36.046Z,15.10
2018-09-03T06:02:04.752Z,15.30
2018-09-03T06:04:34.525Z,15.50
2018-09-03T06:07:03.158Z,15.70
2018-09-03T06:09:31.550Z,16.20
2018-09-03T06:12:00.638Z,16.30
2018-09-03T06:14:28.841Z,16.10
2018-09-03T06:16:57.048Z,16.30
2018-09-03T06:19:26.056Z,16.70
2018-09-03T06:21:54.268Z,17.00
2018-09-03T06:24:22.602Z,17.30
2018-09-03T06:26:51.538Z,17.20
2018-09-03T06:29:19.761Z,16.90
2018-09-03T06:31:50.029Z,17.00
2018-09-03T06:34:19.240Z,16.90
2018-09-03T06:36:47.647Z,16.80
2018-09-03T06:39:17.061Z,16.80
2018-09-03T06:41:51.101Z,16.80
2018-09-03T06:44:19.558Z,16.80
2018-09-03T06:46:47.979Z,16.70
2018-09-03T06:49:21.597Z,16.60
2018-09-03T06:51:51.166Z,16.70
2018-09-03T06:54:20.650Z,16.60
2018-09-03T06:56:49.325Z,16.60
2018-09-03T06:59:17.911Z,16.70
2018-09-03T07:01:46.646Z,16.60
2018-09-03T07:04:20.462Z,16.60
2018-09-03T07:06:50.469Z,16.70
2018-09-03T07:09:20.933Z,16.80
2018-09-03T07:11:50.312Z,16.80
2018-09-03T07:14:20.986Z,16.90
2018-09-03T07:16:50.344Z,16.80
2018-09-03T07:19:19.096Z,16.90
2018-09-03T07:21:49.616Z,17.00
2018-09-03T07:24:19.435Z,17.50
2018-09-03T07:26:48.355Z,17.80
2018-09-03T07:29:16.562Z,17.80
2018-09-03T07:31:45.128Z,17.80
2018-09-03T07:34:29.215Z,17.80
2018-09-03T07:36:57.818Z,17.90
2018-09-03T07:39:26.048Z,18.00
2018-09-03T07:41:55.991Z,17.90
2018-09-03T07:44:24.838Z,17.90
2018-09-03T07:46:53.265Z,18.00
2018-09-03T07:49:21.747Z,17.80
2018-09-03T07:51:50.464Z,17.80
2018-09-03T07:54:18.859Z,17.50
2018-09-03T07:56:47.642Z,17.70
2018-09-03T07:59:16.386Z,17.70
2018-09-03T08:01:44.810Z,17.90
2018-09-03T08:04:13.681Z,17.90
2018-09-03T08:06:42.356Z,18.10
2018-09-03T08:09:11.846Z,18.10
2018-09-03T08:11:40.366Z,18.10
2018-09-03T08:14:10.412Z,18.10
2018-09-03T08:16:40.364Z,17.90
2018-09-03T08:19:09.454Z,18.00
2018-09-03T08:21:38.185Z,18.20
2018-09-03T08:24:06.420Z,18.40
2018-09-03T08:26:35.394Z,18.30
2018-09-03T08:29:04.008Z,18.20
2018-09-03T08:31:32.229Z,18.00
2018-09-03T08:34:00.968Z,17.80
2018-09-03T08:36:29.635Z,17.70
2018-09-03T08:39:00.770Z,17.30
2018-09-03T08:41:29.512Z,17.20
2018-09-03T08:43:58.153Z,17.30
2018-09-03T08:46:26.587Z,17.30
2018-09-03T08:48:56.934Z,17.40
2018-09-03T08:51:25.845Z,17.60
2018-09-03T08:53:54.490Z,17.90
2018-09-03T08:56:23.259Z,17.90
2018-09-03T08:58:52.939Z,17.40
2018-09-03T09:01:23.191Z,17.30
2018-09-03T09:03:52.615Z,17.70
2018-09-03T09:06:24.305Z,17.80
2018-09-03T09:12:05.848Z,17.90
2018-09-03T09:14:34.097Z,17.90
2018-09-03T09:17:02.844Z,18.00
2018-09-03T09:19:31.618Z,18.50
2018-09-03T09:22:00.243Z,18.90
2018-09-03T09:24:29.562Z,19.30
2018-09-03T09:26:58.095Z,19.40
2018-09-03T09:29:26.306Z,18.80
2018-09-03T09:31:55.153Z,18.50
2018-09-03T09:34:28.566Z,18.30
2018-09-03T09:37:02.923Z,18.20
2018-09-03T09:39:34.669Z,18.70
2018-09-03T09:42:03.122Z,18.90
2018-09-03T09:44:31.914Z,19.00
2018-09-03T09:47:00.864Z,19.20
2018-09-03T09:49:29.617Z,19.20
2018-09-03T09:52:03.794Z,18.60
2018-09-03T09:54:36.082Z,18.70
2018-09-03T09:57:05.598Z,18.60
2018-09-03T10:02:41.796Z,18.60
2018-09-03T10:05:10.343Z,18.30
2018-09-03T10:07:40.434Z,18.10
2018-09-03T10:10:09.181Z,18.00
2018-09-03T10:12:40.721Z,18.00
2018-09-03T10:15:12.368Z,17.50
2018-09-03T10:17:41.182Z,17.40
2018-09-03T10:20:09.653Z,17.50
2018-09-03T10:22:38.453Z,17.30
2018-09-03T10:25:09.994Z,17.20
2018-09-03T10:27:38.229Z,17.20
2018-09-03T10:30:06.926Z,17.30
2018-09-03T10:32:35.727Z,17.20
2018-09-03T10:35:04.183Z,17.20
2018-09-03T10:37:36.386Z,17.00
2018-09-03T10:40:07.197Z,17.00
2018-09-03T10:42:36.009Z,17.00
2018-09-03T10:45:04.855Z,16.80
2018-09-03T10:47:33.477Z,16.90
2018-09-03T10:50:04.655Z,17.00
2018-09-03T10:52:38.010Z,16.90
2018-09-03T10:55:10.657Z,17.10
2018-09-03T10:57:39.390Z,17.40
2018-09-03T11:00:08.205Z,17.50
2018-09-03T11:02:36.674Z,17.40
2018-09-03T11:05:06.612Z,17.50
2018-09-03T11:07:35.664Z,17.40
2018-09-03T11:10:04.715Z,17.20
2018-09-03T11:12:33.039Z,17.10
2018-09-03T11:15:06.052Z,17.20
2018-09-03T11:17:34.836Z,17.10
2018-09-03T11:20:05.724Z,17.30
2018-09-03T11:22:40.291Z,17.50
2018-09-03T11:25:09.231Z,17.40
2018-09-03T11:27:39.980Z,17.30
2018-09-03T11:30:38.976Z,17.50
2018-09-03T11:33:35.564Z,17.70
2018-09-03T11:36:04.487Z,17.70
2018-09-03T11:38:42.031Z,17.30
2018-09-03T11:41:10.691Z,17.40
2018-09-03T11:43:42.014Z,17.80
2018-09-03T11:46:10.889Z,18.10
2018-09-03T11:48:39.330Z,18.50
2018-09-03T11:51:08.062Z,18.40
2018-09-03T11:53:39.823Z,18.40
2018-09-03T11:56:08.904Z,18.60
2018-09-03T11:58:37.776Z,18.40
2018-09-03T12:01:06.672Z,17.90
2018-09-03T12:03:35.037Z,18.10
2018-09-03T12:06:19.293Z,18.30
2018-09-03T12:08:48.163Z,18.30
2018-09-03T12:11:17.034Z,18.00
2018-09-03T12:13:45.478Z,18.10
2018-09-03T12:16:17.418Z,18.10
2018-09-03T12:18:46.689Z,18.10
2018-09-03T12:21:16.207Z,18.50
2018-09-03T12:23:45.919Z,18.10
2018-09-03T12:26:19.223Z,17.90
2018-09-03T12:31:56.445Z,18.00
2018-09-03T12:34:24.925Z,18.50
2018-09-03T12:36:53.434Z,18.60
2018-09-03T12:39:22.920Z,18.60
2018-09-03T12:41:52.259Z,18.50
2018-09-03T12:44:25.505Z,18.30
2018-09-03T12:46:55.422Z,18.50
2018-09-03T12:49:24.014Z,19.20
2018-09-03T12:51:52.469Z,19.20
2018-09-03T12:54:21.715Z,19.30
2018-09-03T12:56:50.145Z,19.90
2018-09-03T12:59:18.598Z,19.50
2018-09-03T13:01:50.967Z,19.20
2018-09-03T13:04:19.490Z,18.90
2018-09-03T13:06:47.886Z,19.30
2018-09-03T13:09:48.947Z,19.30
2018-09-03T13:12:18.446Z,19.50
2018-09-03T13:15:08.845Z,19.70
2018-09-03T13:27:20.121Z,19.00
2018-09-03T13:29:58.673Z,18.80
2018-09-03T13:32:28.030Z,18.70
2018-09-03T13:34:59.460Z,18.40
2018-09-03T13:37:29.559Z,19.00
2018-09-03T13:39:58.802Z,18.60
2018-09-03T13:45:27.070Z,19.30
2018-09-03T13:48:03.624Z,19.20
2018-09-03T13:50:36.739Z,19.00
2018-09-03T13:53:05.654Z,18.90
2018-09-03T13:55:34.062Z,19.00
2018-09-03T13:58:03.404Z,19.60
2018-09-03T14:00:32.068Z,19.20
2018-09-03T14:03:00.527Z,18.80
2018-09-03T14:05:30.293Z,19.00
2018-09-03T14:07:59.099Z,18.80
2018-09-03T14:10:31.051Z,18.90
2018-09-03T14:13:01.784Z,18.80
2018-09-03T14:15:31.597Z,19.20
2018-09-03T14:18:00.270Z,19.80
2018-09-03T14:20:30.953Z,19.90
2018-09-03T14:26:06.670Z,19.70
2018-09-03T14:28:51.942Z,19.30
2018-09-03T14:31:21.270Z,18.90
2018-09-03T14:34:02.875Z,18.70
2018-09-03T14:36:31.774Z,19.00
2018-09-03T14:39:00.256Z,19.20
2018-09-03T14:41:54.748Z,18.90
2018-09-03T14:44:23.180Z,18.70
2018-09-03T14:46:52.157Z,18.50
2018-09-03T14:49:21.192Z,18.30
2018-09-03T14:51:50.838Z,18.20
2018-09-03T14:54:26.001Z,18.30
2018-09-03T14:57:20.905Z,18.20
2018-09-03T14:59:52.722Z,18.30
2018-09-03T15:02:21.112Z,18.20
2018-09-03T15:04:49.893Z,18.00
2018-09-03T15:07:18.682Z,18.10
2018-09-03T15:09:47.408Z,18.20
2018-09-03T15:12:17.715Z,18.20
2018-09-03T15:14:46.533Z,18.20
2018-09-03T15:17:15.304Z,18.40
2018-09-03T15:19:44.242Z,18.50
2018-09-03T15:22:16.273Z,18.60
2018-09-03T15:24:45.296Z,18.40
2018-09-03T15:27:21.884Z,18.30
2018-09-03T15:29:56.822Z,18.30
2018-09-03T15:32:25.627Z,18.30
2018-09-03T15:34:54.854Z,18.30
2018-09-03T15:37:23.490Z,18.20
2018-09-03T15:39:52.471Z,18.20
2018-09-03T15:45:59.328Z,18.10
2018-09-03T15:48:27.787Z,18.20
2018-09-03T15:50:56.618Z,18.30
2018-09-03T15:53:26.819Z,18.40
2018-09-03T15:56:09.208Z,18.30
2018-09-03T15:58:38.525Z,18.20
2018-09-03T16:01:07.158Z,18.50
2018-09-03T16:03:44.542Z,18.50
2018-09-03T16:06:14.464Z,18.50
2018-09-03T16:08:43.218Z,18.50
2018-09-03T16:11:20.070Z,18.30
2018-09-03T16:13:49.482Z,18.20
2018-09-03T16:16:19.636Z,18.10
2018-09-03T16:19:01.396Z,18.10
2018-09-03T16:27:51.165Z,17.60
2018-09-03T16:30:21.105Z,17.60
2018-09-03T16:32:50.801Z,17.60
2018-09-03T16:35:24.804Z,17.90
2018-09-03T16:37:53.345Z,17.90
2018-09-03T16:40:25.398Z,18.00
2018-09-03T16:42:54.440Z,17.90
2018-09-03T16:45:23.491Z,17.80
2018-09-03T16:47:53.677Z,17.80
2018-09-03T16:50:24.405Z,17.60
2018-09-03T16:52:59.155Z,17.50
2018-09-03T16:55:52.766Z,17.50
2018-09-03T16:58:21.765Z,17.70
2018-09-03T17:00:58.052Z,17.50
2018-09-03T17:03:42.329Z,17.50
2018-09-03T17:06:11.635Z,17.50
2018-09-03T17:08:45.418Z,17.20
2018-09-03T17:14:05.810Z,17.20
2018-09-03T17:16:34.897Z,17.10
2018-09-03T17:19:03.461Z,17.00
2018-09-03T17:24:51.700Z,16.80
2018-09-03T17:27:21.462Z,16.60
2018-09-03T17:29:51.925Z,16.70
2018-09-03T17:32:20.833Z,16.90
2018-09-03T17:34:49.482Z,17.20
2018-09-03T17:37:17.922Z,17.30
2018-09-03T17:39:46.629Z,17.30
2018-09-03T17:42:16.014Z,17.10
2018-09-03T17:44:45.046Z,17.00
2018-09-03T17:47:13.997Z,17.00
2018-09-03T17:49:42.806Z,17.10
2018-09-03T17:52:11.263Z,17.20
2018-09-03T17:54:41.686Z,17.20
2018-09-03T17:57:26.655Z,17.20
2018-09-03T18:00:18.370Z,17.20
2018-09-03T18:02:47.006Z,17.30
2018-09-03T18:05:15.503Z,17.20
2018-09-03T18:07:43.985Z,17.20
2018-09-03T18:10:15.122Z,17.10
2018-09-03T18:12:43.800Z,16.90
2018-09-03T18:15:12.542Z,16.90
2018-09-03T18:17:42.223Z,16.80
2018-09-03T18:20:13.411Z,16.90
2018-09-03T18:22:55.372Z,16.80
2018-09-03T18:25:24.283Z,16.60
2018-09-03T18:27:52.522Z,16.70
2018-09-03T18:30:21.776Z,16.90
2018-09-03T18:32:50.592Z,17.00
2018-09-03T18:35:18.929Z,17.00
2018-09-03T18:37:47.443Z,16.80
2018-09-03T18:40:15.949Z,16.80
2018-09-03T18:42:44.833Z,16.50
2018-09-03T18:45:13.708Z,16.40
2018-09-03T18:47:42.777Z,16.20
2018-09-03T18:50:15.706Z,16.30
2018-09-03T18:52:45.275Z,16.50
2018-09-03T18:55:14.830Z,16.40
2018-09-03T18:57:43.280Z,16.40
2018-09-03T19:00:13.386Z,16.60
2018-09-03T19:02:42.126Z,16.60
2018-09-03T19:05:10.575Z,16.60
2018-09-03T19:07:39.381Z,16.60
2018-09-03T19:10:08.042Z,16.60
2018-09-03T19:13:04.485Z,16.50
2018-09-03T19:15:46.473Z,16.30
2018-09-03T19:18:15.403Z,16.30
2018-09-03T19:20:44.627Z,16.40
2018-09-03T19:23:13.363Z,16.30
2018-09-03T19:25:42.092Z,16.50
2018-09-03T19:28:18.948Z,16.50
2018-09-03T19:30:48.950Z,16.50
2018-09-03T19:33:17.690Z,16.40
2018-09-03T19:35:45.999Z,16.40
2018-09-03T19:38:15.695Z,16.30
2018-09-03T19:40:44.387Z,16.30
2018-09-03T19:43:12.778Z,16.40
2018-09-03T20:18:34.425Z,15.50
2018-09-03T20:21:03.497Z,15.70
2018-09-03T20:23:32.315Z,15.70
2018-09-03T20:26:00.968Z,15.70
2018-09-03T20:28:29.439Z,15.90
2018-09-03T20:30:57.606Z,15.80
2018-09-03T20:33:26.563Z,15.80
2018-09-03T20:35:54.922Z,15.80
2018-09-03T20:38:23.130Z,15.80
2018-09-03T20:40:51.807Z,15.80
2018-09-03T20:43:20.001Z,15.50
2018-09-03T20:45:48.392Z,15.50
2018-09-03T20:48:17.368Z,15.80
2018-09-03T20:50:45.734Z,15.90
2018-09-03T20:53:14.595Z,16.00
2018-09-03T20:55:44.357Z,16.00
2018-09-03T20:58:12.760Z,15.70
2018-09-03T21:00:41.126Z,15.50
2018-09-03T21:03:09.927Z,15.60
2018-09-03T21:05:38.384Z,15.70
2018-09-03T21:08:06.946Z,15.60
2018-09-03T21:10:35.620Z,15.60
2018-09-03T21:13:04.089Z,15.50
2018-09-03T21:15:32.467Z,15.40
2018-09-03T21:18:01.081Z,15.60
2018-09-03T21:20:29.455Z,15.50
2018-09-03T21:22:57.813Z,15.40
2018-09-03T21:25:26.657Z,15.40
2018-09-03T21:27:55.036Z,15.40
2018-09-03T21:30:23.512Z,15.50
2018-09-03T21:32:52.361Z,15.50
2018-09-03T21:35:20.888Z,15.60
2018-09-03T21:37:49.449Z,15.60
2018-09-03T21:40:18.664Z,15.70
2018-09-03T21:42:47.058Z,15.80
2018-09-03T21:45:15.668Z,15.80
2018-09-03T21:47:44.754Z,15.80
2018-09-03T21:50:13.458Z,15.80
2018-09-03T21:52:41.873Z,15.80
2018-09-03T21:55:10.821Z,15.70
2018-09-03T21:57:39.144Z,15.60
2018-09-03T22:03:07.506Z,15.50
2018-09-03T22:05:35.938Z,15.30
2018-09-03T22:08:04.310Z,15.30
2018-09-03T22:10:33.258Z,15.30
2018-09-03T22:13:01.485Z,15.40
2018-09-03T22:15:29.892Z,15.50
2018-09-03T22:17:58.697Z,15.60
2018-09-03T22:20:27.077Z,15.60
2018-09-03T22:22:55.572Z,15.40
2018-09-03T22:25:24.225Z,15.30
2018-09-03T22:27:52.625Z,15.20
2018-09-03T22:30:21.113Z,15.20
2018-09-03T22:32:49.507Z,15.30
2018-09-03T22:35:18.097Z,15.40
2018-09-03T22:37:46.565Z,15.50
2018-09-03T22:40:14.997Z,15.60
2018-09-03T22:42:43.435Z,15.70
2018-09-03T22:45:12.130Z,15.60
2018-09-03T22:47:40.851Z,15.70
2018-09-03T22:50:09.202Z,15.70
2018-09-03T22:52:37.981Z,15.60
2018-09-03T22:55:06.225Z,15.50
2018-09-03T22:57:34.644Z,15.40
2018-09-03T23:00:03.734Z,15.50
2018-09-03T23:02:36.322Z,15.50
2018-09-03T23:05:04.852Z,15.70
2018-09-03T23:07:33.294Z,15.90
2018-09-03T23:10:01.794Z,16.00
2018-09-03T23:12:30.696Z,15.90
2018-09-03T23:14:59.126Z,15.80
2018-09-03T23:17:27.497Z,15.80
2018-09-03T23:19:55.882Z,16.00
2018-09-03T23:22:24.260Z,16.00
2018-09-03T23:24:52.663Z,16.10
2018-09-03T23:27:21.041Z,16.00
2018-09-03T23:29:49.444Z,15.80
2018-09-03T23:32:17.656Z,15.90
2018-09-03T23:34:45.853Z,15.70
2018-09-03T23:37:14.231Z,15.60
2018-09-03T23:39:42.633Z,15.60
2018-09-03T23:42:10.881Z,15.70
2018-09-03T23:44:39.259Z,15.70
2018-09-03T23:47:07.699Z,15.60
2018-09-03T23:49:36.145Z,15.60
2018-09-03T23:52:04.541Z,15.70
2018-09-03T23:54:32.926Z,15.70
2018-09-03T23:57:01.267Z,15.80
2018-09-03T23:59:29.662Z,15.90
